createdAt,value
2022-08-30T00:00:02.785Z,81.50
2022-08-30T00:02:29.497Z,82.00
2022-08-30T00:04:56.388Z,82.60
2022-08-30T00:07:23.384Z,82.60
2022-08-30T00:09:50.060Z,82.80
2022-08-30T00:12:17.003Z,83.10
2022-08-30T00:14:43.676Z,83.70
2022-08-30T00:17:10.827Z,83.40
2022-08-30T00:19:38.197Z,83.70
2022-08-30T00:22:07.127Z,84.60
2022-08-30T00:24:33.809Z,83.90
2022-08-30T00:27:00.607Z,83.70
2022-08-30T00:29:27.363Z,83.60
2022-08-30T00:31:54.016Z,83.50
2022-08-30T00:34:20.660Z,83.40
2022-08-30T00:36:47.783Z,83.40
2022-08-30T00:39:14.447Z,83.20
2022-08-30T00:41:41.531Z,83.30
2022-08-30T00:44:08.356Z,83.30
2022-08-30T00:46:35.305Z,83.00
2022-08-30T00:49:06.562Z,83.30
2022-08-30T00:51:33.559Z,83.30
2022-08-30T00:54:01.223Z,83.50
2022-08-30T00:56:29.598Z,83.60
2022-08-30T00:58:59.634Z,84.00
2022-08-30T01:01:28.161Z,83.90
2022-08-30T01:03:57.587Z,84.10
2022-08-30T01:06:26.090Z,84.30
2022-08-30T01:09:00.604Z,84.40
2022-08-30T01:11:28.107Z,84.60
2022-08-30T01:13:56.150Z,85.10
2022-08-30T01:16:25.301Z,85.50
2022-08-30T01:18:58.125Z,85.80
2022-08-30T01:22:05.299Z,86.00
2022-08-30T01:24:32.699Z,86.20
2022-08-30T01:26:59.412Z,87.10
2022-08-30T01:29:27.063Z,87.00
2022-08-30T01:31:53.893Z,87.50
2022-08-30T01:34:20.598Z,87.60
2022-08-30T01:36:48.840Z,87.50
2022-08-30T01:39:17.910Z,87.20
2022-08-30T01:41:45.255Z,87.30
2022-08-30T01:44:13.135Z,87.10
2022-08-30T01:46:42.986Z,86.80
2022-08-30T01:49:12.403Z,86.80
2022-08-30T01:51:39.438Z,87.00
2022-08-30T01:54:07.040Z,86.90
2022-08-30T01:56:34.048Z,86.90
2022-08-30T01:59:03.079Z,86.90
2022-08-30T02:01:36.821Z,87.20
2022-08-30T02:04:05.350Z,87.20
2022-08-30T02:06:32.302Z,88.40
2022-08-30T02:08:59.560Z,87.90
2022-08-30T02:11:26.736Z,88.20
2022-08-30T02:13:53.565Z,88.20
2022-08-30T02:16:22.862Z,88.30
2022-08-30T02:18:51.229Z,88.60
2022-08-30T02:21:18.750Z,88.90
2022-08-30T02:23:45.788Z,89.20
2022-08-30T02:26:13.739Z,89.30
2022-08-30T02:28:49.830Z,89.40
2022-08-30T02:31:20.387Z,90.10
2022-08-30T02:33:50.091Z,90.00
2022-08-30T02:36:17.849Z,90.00
2022-08-30T02:38:45.110Z,89.90
2022-08-30T02:41:11.844Z,90.00
2022-08-30T02:43:38.590Z,89.80
2022-08-30T02:46:05.731Z,89.50
2022-08-30T02:48:32.424Z,89.10
2022-08-30T02:51:06.440Z,89.20
2022-08-30T02:53:36.980Z,89.40
2022-08-30T02:56:04.337Z,89.60
2022-08-30T02:58:31.323Z,89.90
2022-08-30T03:00:58.218Z,89.90
2022-08-30T03:03:25.568Z,89.90
2022-08-30T03:05:52.292Z,90.00
2022-08-30T03:08:19.240Z,89.90
2022-08-30T03:10:46.108Z,89.60
2022-08-30T03:13:13.033Z,89.40
2022-08-30T03:15:40.478Z,89.60
2022-08-30T03:18:07.491Z,89.50
2022-08-30T03:20:37.110Z,89.40
2022-08-30T03:23:04.764Z,89.50
2022-08-30T03:25:31.551Z,89.40
2022-08-30T03:27:58.194Z,89.40
2022-08-30T03:30:25.301Z,89.40
2022-08-30T03:32:52.251Z,89.10
2022-08-30T03:35:19.211Z,89.10
2022-08-30T03:37:46.860Z,89.30
2022-08-30T03:40:17.121Z,89.50
2022-08-30T03:42:45.932Z,89.90
2022-08-30T03:45:15.235Z,89.70
2022-08-30T03:47:42.506Z,89.70
2022-08-30T03:50:10.159Z,89.90
2022-08-30T03:52:36.783Z,90.00
2022-08-30T03:55:04.057Z,89.90
2022-08-30T03:57:30.764Z,90.20
2022-08-30T03:59:58.442Z,90.40
2022-08-30T04:02:25.112Z,90.60
2022-08-30T04:04:51.835Z,90.60
2022-08-30T04:07:19.240Z,90.60
2022-08-30T04:09:47.203Z,90.40
2022-08-30T04:12:13.916Z,90.40
2022-08-30T04:14:45.007Z,90.40
2022-08-30T04:17:11.784Z,90.40
2022-08-30T04:19:38.523Z,90.00
2022-08-30T04:22:05.985Z,89.90
2022-08-30T04:24:34.444Z,89.80
2022-08-30T04:27:01.477Z,89.70
2022-08-30T04:29:28.164Z,89.80
2022-08-30T04:31:54.883Z,89.90
2022-08-30T04:34:21.598Z,90.20
2022-08-30T04:36:49.378Z,90.40
2022-08-30T04:39:17.797Z,90.30
2022-08-30T04:41:44.622Z,90.00
2022-08-30T04:44:14.113Z,90.10
2022-08-30T04:46:45.958Z,90.30
2022-08-30T04:49:12.711Z,90.40
2022-08-30T04:51:39.555Z,90.60
2022-08-30T04:54:06.534Z,90.60
2022-08-30T04:56:33.651Z,90.60
2022-08-30T04:59:00.616Z,90.80
2022-08-30T05:01:45.095Z,90.80
2022-08-30T05:04:13.526Z,91.00
2022-08-30T05:06:40.230Z,91.10
2022-08-30T05:09:06.894Z,91.20
2022-08-30T05:11:33.712Z,91.20
2022-08-30T05:14:00.376Z,91.30
2022-08-30T05:16:27.345Z,91.20
2022-08-30T05:18:54.606Z,91.20
2022-08-30T05:21:24.143Z,91.10
2022-08-30T05:23:52.591Z,91.00
2022-08-30T05:26:23.366Z,91.20
2022-08-30T05:28:52.331Z,91.10
2022-08-30T05:31:22.220Z,91.10
2022-08-30T05:33:50.403Z,91.20
2022-08-30T05:36:19.148Z,91.20
2022-08-30T05:38:46.413Z,91.20
2022-08-30T05:41:14.125Z,91.30
2022-08-30T05:43:41.191Z,91.30
2022-08-30T05:46:12.295Z,91.10
2022-08-30T05:48:39.483Z,91.20
2022-08-30T05:51:28.602Z,91.40
2022-08-30T05:53:57.071Z,91.60
2022-08-30T05:56:28.043Z,91.60
2022-08-30T05:58:55.449Z,91.60
2022-08-30T06:01:32.081Z,91.70
2022-08-30T06:04:03.829Z,91.50
2022-08-30T06:06:32.377Z,91.40
2022-08-30T06:08:59.048Z,91.50
2022-08-30T06:11:26.683Z,91.50
2022-08-30T06:13:54.535Z,91.00
2022-08-30T06:16:24.357Z,90.40
2022-08-30T06:18:51.756Z,89.40
2022-08-30T06:21:20.895Z,88.70
2022-08-30T06:23:47.619Z,88.50
2022-08-30T06:26:15.158Z,88.10
2022-08-30T06:28:42.387Z,86.60
2022-08-30T06:31:10.772Z,85.90
2022-08-30T06:33:38.239Z,84.20
2022-08-30T06:36:10.484Z,85.00
2022-08-30T06:38:38.039Z,84.20
2022-08-30T06:41:09.744Z,83.60
2022-08-30T06:43:37.363Z,81.40
2022-08-30T06:46:05.482Z,82.40
2022-08-30T06:48:32.503Z,81.60
2022-08-30T06:50:59.283Z,80.40
2022-08-30T06:53:27.364Z,78.90
2022-08-30T06:56:08.774Z,78.30
2022-08-30T06:58:37.944Z,77.50
2022-08-30T07:01:05.809Z,76.00
2022-08-30T07:03:32.460Z,73.60
2022-08-30T07:05:59.165Z,71.80
2022-08-30T07:08:26.118Z,70.90
2022-08-30T07:10:54.549Z,72.30
2022-08-30T07:13:23.892Z,70.30
2022-08-30T07:15:51.701Z,69.00
2022-08-30T07:18:37.295Z,68.90
2022-08-30T07:21:13.126Z,67.40
2022-08-30T07:23:40.602Z,66.50
2022-08-30T07:26:10.367Z,64.60
2022-08-30T07:28:38.751Z,63.50
2022-08-30T07:31:06.024Z,64.70
2022-08-30T07:33:32.934Z,64.80
2022-08-30T07:36:00.298Z,65.40
2022-08-30T07:38:28.543Z,67.00
2022-08-30T07:41:01.210Z,68.00
2022-08-30T07:43:33.052Z,68.30
2022-08-30T07:46:05.939Z,68.30
2022-08-30T07:48:32.942Z,68.30
2022-08-30T07:51:05.139Z,68.50
2022-08-30T07:53:32.229Z,70.20
2022-08-30T07:55:59.160Z,70.60
2022-08-30T07:58:25.873Z,68.90
2022-08-30T08:00:52.538Z,68.00
2022-08-30T08:03:19.303Z,67.80
2022-08-30T08:05:46.276Z,64.60
2022-08-30T08:08:14.260Z,63.50
2022-08-30T08:10:42.306Z,61.40
2022-08-30T08:13:09.364Z,60.00
2022-08-30T08:15:36.201Z,58.30
2022-08-30T08:18:02.968Z,58.20
2022-08-30T08:20:29.963Z,56.40
2022-08-30T08:22:56.640Z,53.80
2022-08-30T08:25:23.491Z,53.50
2022-08-30T08:27:51.152Z,50.80
2022-08-30T08:30:19.734Z,49.60
2022-08-30T08:32:47.321Z,50.50
2022-08-30T08:35:14.584Z,49.40
2022-08-30T08:37:41.568Z,49.90
2022-08-30T08:40:10.787Z,48.50
2022-08-30T08:42:49.940Z,48.00
2022-08-30T08:45:29.713Z,48.50
2022-08-30T08:48:06.394Z,48.20
2022-08-30T08:50:33.710Z,45.70
2022-08-30T08:53:45.758Z,45.50
2022-08-30T08:56:15.608Z,45.30
2022-08-30T08:58:46.930Z,44.40
2022-08-30T09:01:15.857Z,45.60
2022-08-30T09:03:43.203Z,45.80
2022-08-30T09:06:26.253Z,45.50
2022-08-30T09:08:54.111Z,43.30
2022-08-30T09:11:26.108Z,41.00
2022-08-30T09:13:54.545Z,39.70
2022-08-30T09:16:45.334Z,40.00
2022-08-30T09:19:12.073Z,40.00
2022-08-30T09:21:39.304Z,38.90
2022-08-30T09:24:08.648Z,38.70
2022-08-30T09:26:38.196Z,38.30
2022-08-30T09:29:15.641Z,38.90
2022-08-30T09:31:48.906Z,38.50
2022-08-30T09:34:21.481Z,36.30
2022-08-30T09:36:51.868Z,37.20
2022-08-30T09:39:27.600Z,34.90
2022-08-30T09:41:55.125Z,33.20
2022-08-30T09:44:27.998Z,33.70
2022-08-30T09:46:57.480Z,33.90
2022-08-30T09:49:29.171Z,33.50
2022-08-30T09:52:20.873Z,31.10
2022-08-30T09:55:24.583Z,31.50
2022-08-30T09:58:16.221Z,31.30
2022-08-30T10:01:00.257Z,31.10
2022-08-30T10:03:40.575Z,29.30
2022-08-30T10:06:18.561Z,30.70
2022-08-30T10:09:02.097Z,28.70
2022-08-30T10:11:51.469Z,30.40
2022-08-30T10:14:27.456Z,30.50
2022-08-30T10:17:03.879Z,31.00
2022-08-30T10:19:48.691Z,31.40
2022-08-30T10:22:26.333Z,31.80
2022-08-30T10:25:11.061Z,30.90
2022-08-30T10:27:59.038Z,29.90
2022-08-30T10:30:27.887Z,30.40
2022-08-30T10:32:59.681Z,28.80
2022-08-30T10:35:36.882Z,29.90
2022-08-30T10:38:18.332Z,28.40
2022-08-30T10:41:10.720Z,27.90
2022-08-30T10:43:53.428Z,28.00
2022-08-30T10:46:25.267Z,28.30
2022-08-30T10:48:53.889Z,26.70
2022-08-30T10:51:28.004Z,27.60
2022-08-30T10:54:04.040Z,27.40
2022-08-30T10:56:31.565Z,26.10
2022-08-30T10:58:59.621Z,25.30
2022-08-30T11:01:46.561Z,25.00
2022-08-30T11:04:32.650Z,25.50
2022-08-30T11:07:10.005Z,26.40
2022-08-30T11:09:49.903Z,25.90
2022-08-30T11:12:30.758Z,26.20
2022-08-30T11:14:59.655Z,22.20
2022-08-30T11:17:46.488Z,24.80
2022-08-30T11:20:30.491Z,26.00
2022-08-30T11:23:33.855Z,25.10
2022-08-30T11:26:20.249Z,25.70
2022-08-30T11:28:47.411Z,25.20
2022-08-30T11:31:23.517Z,24.40
2022-08-30T11:33:53.938Z,23.60
2022-08-30T11:36:37.530Z,23.70
2022-08-30T11:39:31.527Z,24.30
2022-08-30T11:42:24.141Z,24.90
2022-08-30T11:45:25.279Z,24.10
2022-08-30T11:48:00.696Z,23.00
2022-08-30T11:51:10.509Z,23.10
2022-08-30T11:53:51.890Z,22.20
2022-08-30T11:56:35.029Z,21.80
2022-08-30T11:59:19.036Z,20.20
2022-08-30T12:01:50.523Z,22.10
2022-08-30T12:04:19.456Z,20.00
2022-08-30T12:07:00.280Z,20.70
2022-08-30T12:09:26.896Z,19.70
2022-08-30T12:12:10.268Z,18.50
2022-08-30T12:14:44.511Z,20.10
2022-08-30T12:17:47.731Z,21.00
2022-08-30T12:20:18.562Z,19.90
2022-08-30T12:22:46.940Z,20.00
2022-08-30T12:25:21.381Z,19.50
2022-08-30T12:27:49.426Z,19.40
2022-08-30T12:30:27.004Z,18.90
2022-08-30T12:32:54.025Z,19.00
2022-08-30T12:35:25.633Z,17.90
2022-08-30T12:37:57.234Z,18.80
2022-08-30T12:40:26.400Z,20.30
2022-08-30T12:42:58.024Z,19.70
2022-08-30T12:45:30.123Z,22.00
2022-08-30T12:48:01.492Z,22.30
2022-08-30T12:50:51.759Z,22.70
2022-08-30T12:53:30.556Z,24.30
2022-08-30T12:56:07.050Z,23.80
2022-08-30T12:59:01.612Z,23.40
2022-08-30T13:01:31.365Z,22.20
2022-08-30T13:04:13.406Z,21.60
2022-08-30T13:06:56.333Z,22.10
2022-08-30T13:09:40.553Z,20.80
2022-08-30T13:12:21.202Z,18.70
2022-08-30T13:14:49.810Z,19.80
2022-08-30T13:17:19.078Z,18.70
2022-08-30T13:20:01.335Z,19.30
2022-08-30T13:22:36.601Z,19.20
2022-08-30T13:25:06.047Z,18.00
2022-08-30T13:27:36.835Z,18.30
2022-08-30T13:30:14.579Z,18.80
2022-08-30T13:32:42.045Z,18.60
2022-08-30T13:35:09.410Z,19.20
2022-08-30T13:37:49.398Z,18.90
2022-08-30T13:40:18.616Z,17.70
2022-08-30T13:42:45.579Z,18.40
2022-08-30T13:48:02.075Z,20.30
2022-08-30T13:50:28.771Z,20.90
2022-08-30T13:52:57.617Z,21.10
2022-08-30T13:55:24.773Z,20.00
2022-08-30T13:57:55.562Z,21.70
2022-08-30T14:00:24.842Z,21.20
2022-08-30T14:03:00.102Z,20.10
2022-08-30T14:05:48.791Z,19.50
2022-08-30T14:11:09.460Z,18.80
2022-08-30T14:13:36.906Z,19.50
2022-08-30T14:18:55.622Z,19.10
2022-08-30T14:21:24.744Z,19.50
2022-08-30T14:23:56.020Z,19.40
2022-08-30T14:26:33.750Z,18.90
2022-08-30T14:29:03.383Z,18.40
2022-08-30T14:31:32.780Z,18.70
2022-08-30T14:34:01.782Z,17.70
2022-08-30T14:36:30.758Z,17.80
2022-08-30T14:38:58.261Z,17.40
2022-08-30T14:41:26.735Z,18.70
2022-08-30T14:43:53.483Z,17.30
2022-08-30T14:46:21.911Z,16.70
2022-08-30T14:48:48.756Z,17.70
2022-08-30T14:51:19.493Z,18.30
2022-08-30T14:53:47.535Z,17.40
2022-08-30T14:56:16.847Z,17.80
2022-08-30T14:58:48.685Z,17.90
2022-08-30T15:01:15.401Z,17.30
2022-08-30T15:03:42.513Z,17.60
2022-08-30T15:06:10.029Z,18.10
2022-08-30T15:08:38.180Z,18.10
2022-08-30T15:11:14.456Z,18.30
2022-08-30T15:13:44.406Z,19.20
2022-08-30T15:16:33.706Z,20.10
2022-08-30T15:19:01.227Z,20.00
2022-08-30T15:21:34.286Z,20.70
2022-08-30T15:24:04.134Z,21.30
2022-08-30T15:26:31.100Z,20.10
2022-08-30T15:28:58.066Z,20.10
2022-08-30T15:31:31.132Z,19.10
2022-08-30T15:33:58.748Z,18.70
2022-08-30T15:36:27.368Z,18.70
2022-08-30T15:38:55.774Z,18.10
2022-08-30T15:41:23.766Z,18.10
2022-08-30T15:43:52.669Z,18.10
2022-08-30T15:46:30.077Z,18.60
2022-08-30T15:49:00.585Z,19.00
2022-08-30T15:51:27.809Z,20.30
2022-08-30T15:53:54.582Z,19.60
2022-08-30T15:56:21.653Z,20.10
2022-08-30T15:58:48.715Z,20.40
2022-08-30T16:01:19.916Z,20.80
2022-08-30T16:03:57.352Z,21.50
2022-08-30T16:06:28.086Z,21.70
2022-08-30T16:08:55.159Z,21.90
2022-08-30T16:11:22.878Z,23.00
2022-08-30T16:13:50.865Z,23.10
2022-08-30T16:16:19.513Z,22.70
2022-08-30T16:18:53.751Z,24.50
2022-08-30T16:21:25.055Z,24.50
2022-08-30T16:23:55.019Z,25.00
2022-08-30T16:26:22.089Z,23.70
2022-08-30T16:28:49.477Z,24.10
2022-08-30T16:31:17.686Z,24.10
2022-08-30T16:33:45.237Z,24.60
2022-08-30T16:36:12.848Z,25.10
2022-08-30T16:38:40.844Z,24.50
2022-08-30T16:41:10.195Z,25.70
2022-08-30T16:43:38.895Z,25.30
2022-08-30T16:46:09.711Z,25.70
2022-08-30T16:48:38.156Z,25.90
2022-08-30T16:51:14.741Z,25.40
2022-08-30T16:53:42.144Z,25.90
2022-08-30T16:56:13.589Z,25.30
2022-08-30T16:58:41.524Z,25.50
2022-08-30T17:01:08.543Z,26.50
2022-08-30T17:03:37.565Z,26.30
2022-08-30T17:06:05.778Z,25.60
2022-08-30T17:08:33.577Z,25.20
2022-08-30T17:11:00.570Z,25.50
2022-08-30T17:13:27.310Z,25.70
2022-08-30T17:15:54.360Z,25.40
2022-08-30T17:18:21.169Z,25.70
2022-08-30T17:20:47.957Z,25.80
2022-08-30T17:23:15.180Z,25.40
2022-08-30T17:25:43.254Z,26.40
2022-08-30T17:28:10.697Z,26.70
2022-08-30T17:30:37.625Z,26.80
2022-08-30T17:33:04.532Z,26.90
2022-08-30T17:35:31.448Z,27.50
2022-08-30T17:37:58.267Z,27.20
2022-08-30T17:40:25.049Z,27.80
2022-08-30T17:42:51.816Z,28.50
2022-08-30T17:45:18.855Z,28.70
2022-08-30T17:47:45.599Z,29.00
2022-08-30T17:50:14.777Z,29.20
2022-08-30T17:52:42.503Z,29.90
2022-08-30T17:55:09.899Z,30.20
2022-08-30T17:57:36.839Z,30.50
2022-08-30T18:00:08.641Z,32.00
2022-08-30T18:02:35.292Z,32.20
2022-08-30T18:05:04.664Z,32.50
2022-08-30T18:07:31.432Z,32.70
2022-08-30T18:09:59.267Z,31.60
2022-08-30T18:12:26.902Z,31.90
2022-08-30T18:14:54.023Z,31.80
2022-08-30T18:17:21.353Z,32.70
2022-08-30T18:19:48.740Z,32.90
2022-08-30T18:22:16.369Z,32.60
2022-08-30T18:24:43.541Z,33.70
2022-08-30T18:27:10.373Z,34.10
2022-08-30T18:29:38.374Z,34.30
2022-08-30T18:32:05.639Z,34.60
2022-08-30T18:34:35.927Z,35.00
2022-08-30T18:37:02.680Z,35.50
2022-08-30T18:39:34.401Z,35.70
2022-08-30T18:42:02.688Z,35.70
2022-08-30T18:47:17.233Z,36.40
2022-08-30T18:49:50.373Z,36.50
2022-08-30T18:52:17.184Z,36.70
2022-08-30T18:54:52.385Z,37.40
2022-08-30T18:57:20.427Z,37.60
2022-08-30T18:59:47.285Z,37.40
2022-08-30T19:02:16.350Z,38.00
2022-08-30T19:04:45.480Z,38.70
2022-08-30T19:07:14.729Z,38.90
2022-08-30T19:09:42.132Z,39.60
2022-08-30T19:12:11.471Z,38.60
2022-08-30T19:14:39.212Z,39.00
2022-08-30T19:17:07.221Z,39.70
2022-08-30T19:19:35.152Z,39.40
2022-08-30T19:22:04.148Z,39.80
2022-08-30T19:24:31.027Z,39.90
2022-08-30T19:26:59.167Z,39.80
2022-08-30T19:29:25.937Z,40.50
2022-08-30T19:31:53.014Z,41.20
2022-08-30T19:34:19.723Z,41.90
2022-08-30T19:36:48.747Z,40.70
2022-08-30T19:39:15.416Z,40.90
2022-08-30T19:41:44.250Z,41.60
2022-08-30T19:44:10.951Z,41.90
2022-08-30T19:46:37.679Z,42.00
2022-08-30T19:49:06.999Z,42.40
2022-08-30T19:51:34.005Z,42.80
2022-08-30T19:54:03.096Z,43.20
2022-08-30T19:56:29.969Z,43.40
2022-08-30T19:58:56.748Z,44.10
2022-08-30T20:01:33.524Z,44.40
2022-08-30T20:04:01.866Z,44.10
2022-08-30T20:06:29.379Z,44.30
2022-08-30T20:08:56.823Z,45.00
2022-08-30T20:11:27.563Z,45.10
2022-08-30T20:13:54.561Z,45.20
2022-08-30T20:16:21.307Z,45.60
2022-08-30T20:18:59.932Z,46.00
2022-08-30T20:21:26.648Z,46.00
2022-08-30T20:23:53.339Z,46.40
2022-08-30T20:24:29.367Z,36.30
2022-08-30T20:26:20.116Z,47.00
2022-08-30T20:28:59.795Z,47.10
2022-08-30T20:31:27.195Z,47.50
2022-08-30T20:33:53.970Z,47.60
2022-08-30T20:36:20.788Z,48.20
2022-08-30T20:38:47.580Z,49.00
2022-08-30T20:41:17.045Z,49.40
2022-08-30T20:43:45.366Z,49.70
2022-08-30T20:46:15.747Z,49.80
2022-08-30T20:48:43.584Z,49.90
2022-08-30T20:51:14.465Z,50.30
2022-08-30T20:53:44.162Z,50.70
2022-08-30T20:56:19.118Z,50.90
2022-08-30T20:58:46.391Z,51.40
2022-08-30T21:01:15.813Z,51.60
2022-08-30T21:03:44.773Z,51.40
2022-08-30T21:06:15.183Z,51.70
2022-08-30T21:08:42.121Z,51.90
2022-08-30T21:11:09.252Z,52.30
2022-08-30T21:13:37.800Z,52.70
2022-08-30T21:16:05.615Z,52.50
2022-08-30T21:18:34.484Z,53.20
2022-08-30T21:21:09.911Z,53.30
2022-08-30T21:23:37.050Z,53.70
2022-08-30T21:26:06.225Z,54.00
2022-08-30T21:28:33.791Z,53.80
2022-08-30T21:31:12.666Z,54.10
2022-08-30T21:33:40.377Z,54.40
2022-08-30T21:36:26.364Z,54.60
2022-08-30T21:38:53.394Z,54.20
2022-08-30T21:41:26.918Z,55.10
2022-08-30T21:44:00.790Z,54.90
2022-08-30T21:46:30.325Z,55.60
2022-08-30T21:49:01.597Z,55.50
2022-08-30T21:51:31.529Z,55.70
2022-08-30T21:53:58.403Z,56.60
2022-08-30T21:56:25.148Z,56.60
2022-08-30T21:58:51.872Z,56.20
2022-08-30T22:01:27.461Z,56.60
2022-08-30T22:03:56.803Z,56.70
2022-08-30T22:06:25.208Z,56.30
2022-08-30T22:09:01.043Z,55.80
2022-08-30T22:11:28.893Z,55.70
2022-08-30T22:13:55.909Z,55.90
2022-08-30T22:16:23.333Z,55.90
2022-08-30T22:18:51.023Z,55.80
2022-08-30T22:21:22.279Z,56.10
2022-08-30T22:23:49.379Z,56.40
2022-08-30T22:26:17.799Z,56.30
2022-08-30T22:28:44.573Z,56.50
2022-08-30T22:31:13.567Z,56.60
2022-08-30T22:33:40.672Z,56.10
2022-08-30T22:36:33.075Z,55.80
2022-08-30T22:39:01.652Z,55.70
2022-08-30T22:41:31.242Z,55.70
2022-08-30T22:43:58.362Z,55.80
2022-08-30T22:46:33.716Z,56.00
2022-08-30T22:49:02.623Z,56.20
2022-08-30T22:51:29.809Z,56.30
2022-08-30T22:53:56.748Z,56.20
2022-08-30T22:56:26.048Z,56.50
2022-08-30T22:58:54.284Z,56.50
2022-08-30T23:01:33.472Z,56.20
2022-08-30T23:04:03.530Z,56.60
2022-08-30T23:06:32.422Z,57.30
2022-08-30T23:08:59.627Z,57.40
2022-08-30T23:11:26.766Z,57.80
2022-08-30T23:13:53.941Z,57.80
2022-08-30T23:16:21.858Z,58.40
2022-08-30T23:18:49.345Z,58.50
2022-08-30T23:21:26.704Z,59.00
2022-08-30T23:24:13.626Z,59.20
2022-08-30T23:27:00.582Z,60.00
2022-08-30T23:29:48.684Z,61.40
2022-08-30T23:32:33.942Z,61.80
2022-08-30T23:35:19.693Z,62.00
2022-08-30T23:38:04.959Z,62.80
2022-08-30T23:40:50.325Z,63.10
2022-08-30T23:43:35.643Z,63.60
2022-08-30T23:46:21.108Z,64.10
2022-08-30T23:49:07.232Z,64.60
2022-08-30T23:51:53.904Z,65.30
2022-08-30T23:54:39.223Z,64.60
2022-08-30T23:57:24.702Z,64.40
